createdAt,value
2019-03-28T00:01:48.180Z,62.18
2019-03-28T00:04:17.224Z,62.09
2019-03-28T00:06:46.016Z,62.35
2019-03-28T00:09:14.450Z,62.57
2019-03-28T00:11:42.932Z,66.41
2019-03-28T00:14:11.488Z,62.45
2019-03-28T00:16:40.065Z,61.78
2019-03-28T00:19:08.611Z,62.47
2019-03-28T00:21:37.121Z,62.47
2019-03-28T00:24:07.380Z,62.39
2019-03-28T00:26:36.035Z,63.51
2019-03-28T00:29:04.916Z,64.16
2019-03-28T00:31:33.666Z,63.83
2019-03-28T00:34:02.269Z,63.45
2019-03-28T00:36:30.784Z,62.86
2019-03-28T00:38:59.325Z,62.42
2019-03-28T00:59:16.949Z,62.14
2019-03-28T01:01:45.454Z,61.71
2019-03-28T01:04:14.160Z,62.52
2019-03-28T01:06:42.680Z,62.74
2019-03-28T01:09:11.366Z,62.55
2019-03-28T01:11:39.997Z,62.17
2019-03-28T01:14:09.442Z,61.79
2019-03-28T01:16:38.032Z,61.30
2019-03-28T01:19:06.697Z,61.17
2019-03-28T01:21:35.124Z,66.55
2019-03-28T01:24:03.644Z,63.99
2019-03-28T01:26:32.282Z,61.38
2019-03-28T01:29:00.837Z,62.74
2019-03-28T01:31:29.289Z,63.02
2019-03-28T01:33:57.775Z,63.44
2019-03-28T01:36:26.287Z,62.36
2019-03-28T01:38:54.753Z,63.38
2019-03-28T01:41:23.437Z,63.92
2019-03-28T01:43:52.339Z,63.55
2019-03-28T01:46:21.018Z,63.46
2019-03-28T01:48:49.498Z,63.47
2019-03-28T01:51:18.080Z,63.50
2019-03-28T01:53:46.658Z,63.96
2019-03-28T01:56:15.178Z,65.53
2019-03-28T01:58:43.687Z,66.77
2019-03-28T02:01:12.234Z,64.53
2019-03-28T02:03:41.176Z,63.43
2019-03-28T02:06:10.573Z,62.58
2019-03-28T02:08:39.159Z,62.33
2019-03-28T02:11:07.708Z,62.77
2019-03-28T02:13:36.294Z,63.06
2019-03-28T02:16:04.920Z,63.31
2019-03-28T02:18:33.441Z,62.63
2019-03-28T02:21:02.182Z,62.54
2019-03-28T02:23:30.695Z,62.20
2019-03-28T02:25:59.332Z,62.14
2019-03-28T02:28:27.842Z,62.15
2019-03-28T02:30:56.405Z,62.13
2019-03-28T02:33:25.899Z,65.63
2019-03-28T02:35:54.424Z,62.51
2019-03-28T02:38:23.035Z,61.20
2019-03-28T02:40:51.688Z,60.79
2019-03-28T02:43:20.325Z,60.74
2019-03-28T02:45:48.750Z,60.64
2019-03-28T02:48:17.363Z,60.59
2019-03-28T02:50:45.885Z,61.36
2019-03-28T02:53:14.950Z,61.60
2019-03-28T02:55:43.484Z,61.68
2019-03-28T02:58:12.109Z,61.41
2019-03-28T03:00:40.727Z,61.31
2019-03-28T03:03:09.297Z,61.10
2019-03-28T03:05:37.885Z,61.43
2019-03-28T03:08:07.691Z,66.03
2019-03-28T03:10:36.674Z,62.07
2019-03-28T03:13:05.297Z,60.98
2019-03-28T03:15:34.195Z,60.75
2019-03-28T03:18:02.764Z,61.03
2019-03-28T03:20:31.415Z,61.46
2019-03-28T03:23:00.220Z,61.36
2019-03-28T03:25:28.852Z,62.12
2019-03-28T03:27:59.156Z,62.79
2019-03-28T03:30:27.641Z,62.90
2019-03-28T03:32:56.192Z,63.20
2019-03-28T03:35:24.826Z,62.85
2019-03-28T03:37:53.392Z,62.68
2019-03-28T03:40:21.941Z,62.92
2019-03-28T03:42:50.683Z,66.15
2019-03-28T03:45:19.220Z,65.43
2019-03-28T03:47:47.676Z,63.70
2019-03-28T03:50:29.779Z,62.97
2019-03-28T03:52:58.425Z,63.86
2019-03-28T03:55:27.013Z,63.66
2019-03-28T03:57:55.916Z,63.92
2019-03-28T04:00:32.719Z,64.74
2019-03-28T04:03:03.022Z,65.49
2019-03-28T04:05:32.117Z,65.19
2019-03-28T04:08:00.720Z,64.83
2019-03-28T04:10:29.351Z,64.28
2019-03-28T04:12:57.919Z,63.82
2019-03-28T04:15:26.747Z,64.26
2019-03-28T04:17:55.173Z,66.48
2019-03-28T04:20:24.905Z,68.89
2019-03-28T04:22:53.976Z,65.03
2019-03-28T04:25:22.576Z,64.05
2019-03-28T04:27:51.214Z,63.44
2019-03-28T04:30:19.798Z,63.50
2019-03-28T04:32:48.298Z,63.74
2019-03-28T04:35:17.424Z,65.07
2019-03-28T04:37:46.160Z,65.43
2019-03-28T04:40:14.776Z,65.62
2019-03-28T04:42:45.865Z,64.99
2019-03-28T04:45:14.398Z,64.99
2019-03-28T04:47:44.069Z,64.90
2019-03-28T04:50:12.667Z,64.68
2019-03-28T04:52:41.224Z,64.62
2019-03-28T04:55:10.465Z,69.36
2019-03-28T04:57:41.055Z,66.68
2019-03-28T05:00:10.383Z,64.92
2019-03-28T05:02:38.995Z,64.14
2019-03-28T05:05:08.108Z,63.66
2019-03-28T05:07:36.719Z,64.32
2019-03-28T05:10:08.218Z,65.26
2019-03-28T05:12:36.886Z,66.02
2019-03-28T05:15:12.749Z,66.17
2019-03-28T05:17:41.429Z,66.11
2019-03-28T05:20:13.137Z,65.58
2019-03-28T05:22:40.767Z,64.90
2019-03-28T05:25:09.571Z,64.75
2019-03-28T05:27:38.219Z,65.30
2019-03-28T05:30:09.413Z,68.13
2019-03-28T05:32:37.883Z,65.68
2019-03-28T05:35:07.753Z,64.85
2019-03-28T05:37:36.665Z,64.78
2019-03-28T05:40:07.191Z,65.44
2019-03-28T05:42:35.779Z,64.90
2019-03-28T05:45:06.705Z,65.00
2019-03-28T05:47:35.414Z,65.64
2019-03-28T05:50:05.349Z,65.69
2019-03-28T05:52:33.968Z,65.30
2019-03-28T05:55:05.254Z,64.82
2019-03-28T05:57:32.867Z,64.43
2019-03-28T06:00:01.466Z,64.55
2019-03-28T06:02:29.963Z,64.39
2019-03-28T06:04:58.500Z,68.49
2019-03-28T06:07:27.052Z,66.15
2019-03-28T06:09:55.558Z,64.76
2019-03-28T06:12:24.111Z,64.22
2019-03-28T06:14:52.629Z,64.05
2019-03-28T06:17:21.162Z,64.59
2019-03-28T06:19:49.754Z,64.09
2019-03-28T06:22:18.265Z,65.24
2019-03-28T06:24:46.767Z,65.29
2019-03-28T06:27:15.771Z,65.12
2019-03-28T06:29:44.286Z,64.46
2019-03-28T06:32:12.913Z,64.25
2019-03-28T06:34:41.530Z,63.86
2019-03-28T06:37:09.978Z,63.91
2019-03-28T06:39:38.629Z,65.48
2019-03-28T06:42:07.134Z,66.45
2019-03-28T06:44:35.688Z,65.44
2019-03-28T06:47:04.372Z,64.45
2019-03-28T06:49:32.968Z,64.67
2019-03-28T06:52:01.599Z,63.13
2019-03-28T06:54:30.694Z,62.57
2019-03-28T06:56:59.448Z,63.03
2019-03-28T06:59:37.422Z,63.74
2019-03-28T07:01:58.363Z,63.40
2019-03-28T07:04:27.030Z,62.85
2019-03-28T07:06:56.021Z,62.22
2019-03-28T07:09:24.503Z,61.77
2019-03-28T07:11:53.091Z,61.48
2019-03-28T07:14:21.654Z,61.42
2019-03-28T07:16:50.215Z,65.67
2019-03-28T07:19:18.766Z,61.32
2019-03-28T07:21:47.292Z,60.47
2019-03-28T07:24:15.891Z,60.56
2019-03-28T07:26:44.336Z,61.14
2019-03-28T07:29:13.185Z,60.99
2019-03-28T07:31:41.775Z,60.93
2019-03-28T07:34:13.450Z,62.04
2019-03-28T07:36:40.756Z,62.63
2019-03-28T07:39:09.383Z,62.13
2019-03-28T07:41:37.983Z,61.31
2019-03-28T07:44:06.552Z,60.70
2019-03-28T07:46:35.212Z,60.53
2019-03-28T07:49:03.848Z,60.28
2019-03-28T07:51:32.360Z,62.89
2019-03-28T07:54:00.967Z,61.14
2019-03-28T07:56:29.677Z,60.57
2019-03-28T07:58:58.293Z,59.89
2019-03-28T08:01:26.919Z,59.74
2019-03-28T08:03:55.637Z,59.97
2019-03-28T08:06:24.181Z,59.94
2019-03-28T08:08:52.826Z,60.65
2019-03-28T08:11:21.391Z,60.48
2019-03-28T08:13:50.171Z,60.33
2019-03-28T08:16:18.755Z,60.08
2019-03-28T08:18:48.057Z,60.29
2019-03-28T08:21:17.154Z,60.33
2019-03-28T08:23:45.835Z,60.48
2019-03-28T08:26:14.439Z,62.35
2019-03-28T08:28:43.025Z,61.46
2019-03-28T08:31:11.637Z,60.52
2019-03-28T08:33:42.807Z,59.90
2019-03-28T08:36:11.894Z,59.58
2019-03-28T08:38:41.745Z,59.83
2019-03-28T08:41:10.254Z,58.86
2019-03-28T08:43:38.885Z,59.10
2019-03-28T08:46:08.906Z,59.52
2019-03-28T08:48:37.691Z,59.58
2019-03-28T08:51:06.300Z,59.49
2019-03-28T08:53:34.867Z,59.38
2019-03-28T08:56:03.465Z,59.07
2019-03-28T08:58:32.050Z,59.48
2019-03-28T09:01:00.995Z,58.90
2019-03-28T09:03:29.530Z,60.02
2019-03-28T09:05:58.224Z,58.30
2019-03-28T09:08:26.869Z,57.79
2019-03-28T09:10:55.446Z,57.48
2019-03-28T09:13:24.078Z,57.61
2019-03-28T09:15:52.735Z,57.47
2019-03-28T09:18:21.334Z,57.42
2019-03-28T09:20:49.925Z,57.63
2019-03-28T09:23:19.544Z,57.11
2019-03-28T09:25:48.068Z,57.22
2019-03-28T09:28:16.513Z,58.21
2019-03-28T09:30:49.647Z,58.40
2019-03-28T09:33:15.733Z,57.05
2019-03-28T09:35:44.528Z,57.42
2019-03-28T09:38:13.223Z,58.49
2019-03-28T09:40:41.822Z,55.64
2019-03-28T09:43:10.400Z,54.98
2019-03-28T09:45:39.072Z,55.58
2019-03-28T09:48:11.311Z,56.08
2019-03-28T09:50:38.232Z,54.54
2019-03-28T09:53:06.956Z,54.67
2019-03-28T09:55:35.799Z,55.60
2019-03-28T09:58:04.452Z,55.54
2019-03-28T10:00:34.507Z,55.40
2019-03-28T10:03:03.469Z,55.36
2019-03-28T10:05:32.326Z,55.22
2019-03-28T10:08:00.957Z,55.11
2019-03-28T10:10:29.561Z,55.56
2019-03-28T10:12:58.119Z,58.97
2019-03-28T10:15:26.778Z,55.73
2019-03-28T10:17:55.328Z,53.79
2019-03-28T10:20:23.950Z,53.26
2019-03-28T10:22:52.565Z,54.16
2019-03-28T10:25:21.081Z,53.40
2019-03-28T10:27:50.634Z,53.16
2019-03-28T10:30:39.951Z,52.88
2019-03-28T10:33:08.975Z,53.24
2019-03-28T10:35:37.594Z,52.72
2019-03-28T10:38:06.361Z,52.37
2019-03-28T10:40:35.119Z,53.26
2019-03-28T10:43:04.831Z,54.15
2019-03-28T10:45:33.862Z,53.84
2019-03-28T10:48:02.478Z,57.69
2019-03-28T10:50:41.188Z,51.76
2019-03-28T10:53:01.398Z,51.29
2019-03-28T10:55:30.078Z,52.38
2019-03-28T10:57:58.742Z,51.86
2019-03-28T11:00:27.313Z,49.60
2019-03-28T11:02:56.014Z,50.24
2019-03-28T11:05:24.648Z,50.42
2019-03-28T11:07:53.273Z,49.71
2019-03-28T11:10:21.896Z,49.92
2019-03-28T11:12:51.589Z,51.54
2019-03-28T11:15:20.300Z,51.29
2019-03-28T11:17:48.895Z,49.93
2019-03-28T11:20:17.623Z,49.93
2019-03-28T11:22:46.217Z,52.91
2019-03-28T11:25:14.847Z,48.83
2019-03-28T11:27:43.308Z,47.66
2019-03-28T11:30:12.482Z,47.94
2019-03-28T11:32:41.040Z,48.68
2019-03-28T11:35:09.764Z,48.89
2019-03-28T11:37:38.386Z,48.40
2019-03-28T11:40:09.435Z,49.97
2019-03-28T11:42:38.220Z,50.37
2019-03-28T11:45:09.573Z,50.30
2019-03-28T11:47:38.195Z,50.41
2019-03-28T11:50:08.217Z,49.04
2019-03-28T11:52:36.900Z,50.62
2019-03-28T11:55:07.439Z,51.12
2019-03-28T11:57:37.116Z,50.97
2019-03-28T12:00:09.055Z,49.80
2019-03-28T12:02:37.677Z,50.42
2019-03-28T12:05:07.697Z,49.05
2019-03-28T12:07:36.307Z,49.75
2019-03-28T12:10:08.073Z,49.38
2019-03-28T12:12:36.706Z,49.28
2019-03-28T12:15:08.274Z,50.44
2019-03-28T12:17:36.873Z,50.30
2019-03-28T12:20:07.486Z,50.21
2019-03-28T12:22:36.117Z,50.14
2019-03-28T12:25:06.083Z,49.54
2019-03-28T12:27:34.698Z,50.87
2019-03-28T12:30:03.801Z,50.81
2019-03-28T12:32:32.436Z,50.81
2019-03-28T12:35:01.486Z,50.93
2019-03-28T12:37:30.075Z,49.36
2019-03-28T12:40:00.081Z,48.09
2019-03-28T12:42:28.920Z,47.78
2019-03-28T12:44:59.002Z,47.91
2019-03-28T12:47:41.269Z,47.71
2019-03-28T12:49:58.133Z,48.11
2019-03-28T12:52:29.702Z,46.94
2019-03-28T12:54:57.185Z,47.45
2019-03-28T12:57:25.717Z,46.29
2019-03-28T12:59:54.548Z,45.76
2019-03-28T13:02:31.387Z,47.29
2019-03-28T13:04:54.070Z,47.31
2019-03-28T13:07:22.717Z,47.83
2019-03-28T13:09:51.299Z,46.55
2019-03-28T13:12:19.918Z,46.00
2019-03-28T13:14:48.579Z,46.91
2019-03-28T13:17:17.293Z,47.50
2019-03-28T13:19:45.761Z,47.99
2019-03-28T13:22:14.348Z,48.59
2019-03-28T13:24:43.076Z,47.98
2019-03-28T13:27:11.591Z,47.38
2019-03-28T13:29:40.184Z,47.99
2019-03-28T13:32:08.822Z,47.56
2019-03-28T13:34:37.413Z,47.04
2019-03-28T13:37:05.928Z,46.80
2019-03-28T13:39:34.591Z,47.29
2019-03-28T13:42:03.167Z,48.62
2019-03-28T13:44:31.639Z,47.84
2019-03-28T13:47:00.201Z,47.35
2019-03-28T13:49:28.776Z,46.44
2019-03-28T13:51:57.269Z,45.70
2019-03-28T13:54:25.807Z,46.75
2019-03-28T13:56:54.567Z,46.91
2019-03-28T13:59:23.148Z,46.87
2019-03-28T14:01:51.781Z,46.74
2019-03-28T14:04:20.241Z,47.17
2019-03-28T14:06:48.823Z,47.05
2019-03-28T14:09:17.431Z,46.97
2019-03-28T14:11:46.028Z,46.07
2019-03-28T14:14:14.665Z,46.03
2019-03-28T14:16:43.189Z,46.83
2019-03-28T14:19:11.756Z,47.02
2019-03-28T14:21:40.336Z,46.38
2019-03-28T14:24:11.574Z,46.82
2019-03-28T14:26:39.395Z,45.95
2019-03-28T14:29:07.950Z,45.93
2019-03-28T14:31:36.662Z,46.48
2019-03-28T14:34:05.366Z,47.16
2019-03-28T14:36:33.895Z,46.79
2019-03-28T14:39:02.916Z,46.84
2019-03-28T14:41:31.436Z,47.13
2019-03-28T14:44:00.004Z,46.29
2019-03-28T14:46:28.636Z,47.80
2019-03-28T14:48:57.228Z,48.58
2019-03-28T14:51:26.153Z,48.21
2019-03-28T14:53:55.808Z,50.69
2019-03-28T14:56:24.737Z,47.92
2019-03-28T14:58:55.249Z,48.32
2019-03-28T15:01:26.714Z,49.00
2019-03-28T15:03:54.152Z,48.68
2019-03-28T15:06:22.763Z,48.23
2019-03-28T15:08:51.388Z,48.19
2019-03-28T15:11:19.939Z,47.64
2019-03-28T15:13:48.624Z,47.70
2019-03-28T15:16:17.172Z,48.77
2019-03-28T15:18:45.725Z,47.38
2019-03-28T15:21:14.348Z,47.04
2019-03-28T15:23:42.935Z,48.62
2019-03-28T15:26:11.567Z,47.88
2019-03-28T15:28:40.161Z,51.03
2019-03-28T15:31:08.863Z,47.76
2019-03-28T15:33:39.801Z,47.80
2019-03-28T15:36:07.793Z,48.76
2019-03-28T15:38:36.411Z,48.74
2019-03-28T15:41:05.139Z,49.22
2019-03-28T15:43:33.800Z,48.73
2019-03-28T15:46:02.434Z,49.31
2019-03-28T15:48:31.044Z,47.74
2019-03-28T15:50:59.634Z,48.21
2019-03-28T15:53:28.199Z,48.38
2019-03-28T15:55:57.029Z,49.01
2019-03-28T15:58:25.842Z,49.44
2019-03-28T16:00:54.437Z,49.29
2019-03-28T16:03:23.120Z,52.14
2019-03-28T16:05:58.247Z,49.81
2019-03-28T16:08:22.274Z,49.79
2019-03-28T16:10:50.815Z,48.88
2019-03-28T16:13:19.446Z,49.67
2019-03-28T16:15:48.089Z,49.79
2019-03-28T16:18:17.073Z,48.98
2019-03-28T16:20:45.670Z,48.88
2019-03-28T16:23:15.158Z,49.31
2019-03-28T16:25:43.730Z,49.86
2019-03-28T16:28:12.415Z,49.73
2019-03-28T16:30:41.132Z,49.64
2019-03-28T16:33:09.990Z,49.81
2019-03-28T16:35:38.579Z,49.83
2019-03-28T16:38:07.221Z,50.08
2019-03-28T16:40:36.016Z,49.53
2019-03-28T16:43:04.611Z,49.03
2019-03-28T16:45:33.242Z,49.03
2019-03-28T16:48:01.893Z,49.35
2019-03-28T16:50:30.470Z,49.04
2019-03-28T16:52:58.927Z,48.45
2019-03-28T16:55:28.324Z,49.57
2019-03-28T16:57:57.560Z,49.55
2019-03-28T17:00:34.574Z,49.31
2019-03-28T17:03:03.390Z,49.04
2019-03-28T17:05:34.691Z,49.88
2019-03-28T17:08:04.189Z,51.00
2019-03-28T17:10:43.679Z,52.04
2019-03-28T17:13:12.304Z,56.86
2019-03-28T17:15:40.999Z,53.12
2019-03-28T17:18:09.582Z,52.53
2019-03-28T17:20:38.227Z,52.22
2019-03-28T17:23:06.900Z,51.44
2019-03-28T17:25:35.528Z,52.71
2019-03-28T17:28:04.500Z,52.31
2019-03-28T17:30:33.116Z,53.93
2019-03-28T17:33:01.746Z,53.65
2019-03-28T17:35:30.392Z,53.18
2019-03-28T17:37:58.996Z,53.87
2019-03-28T17:40:27.494Z,53.60
2019-03-28T17:42:56.011Z,53.38
2019-03-28T17:45:25.685Z,52.25
2019-03-28T17:47:54.556Z,56.43
2019-03-28T17:50:23.069Z,52.37
2019-03-28T17:52:51.781Z,52.37
2019-03-28T17:55:20.570Z,52.72
2019-03-28T17:57:49.295Z,53.00
2019-03-28T18:00:18.194Z,53.30
2019-03-28T18:02:46.807Z,54.02
2019-03-28T18:05:15.951Z,52.86
2019-03-28T18:07:44.846Z,53.39
2019-03-28T18:10:14.040Z,53.96
2019-03-28T18:12:42.627Z,54.25
2019-03-28T18:15:11.749Z,55.37
2019-03-28T18:17:40.735Z,54.79
2019-03-28T18:20:09.732Z,53.31
2019-03-28T18:22:38.379Z,56.69
2019-03-28T18:25:08.474Z,56.99
2019-03-28T18:27:37.269Z,54.32
2019-03-28T18:30:07.420Z,54.27
2019-03-28T18:32:39.128Z,54.85
2019-03-28T18:35:08.260Z,53.86
2019-03-28T18:37:37.450Z,54.63
2019-03-28T18:40:07.822Z,54.62
2019-03-28T18:42:36.489Z,54.27
2019-03-28T18:45:08.386Z,55.54
2019-03-28T18:47:37.059Z,55.82
2019-03-28T18:50:07.722Z,55.57
2019-03-28T18:52:36.216Z,55.28
2019-03-28T18:55:06.749Z,55.42
2019-03-28T18:57:35.359Z,58.63
2019-03-28T19:00:05.993Z,58.63
2019-03-28T19:02:34.674Z,56.81
2019-03-28T19:05:03.306Z,56.06
2019-03-28T19:07:31.954Z,56.67
2019-03-28T19:10:00.773Z,56.14
2019-03-28T19:12:29.390Z,57.19
2019-03-28T19:14:58.004Z,57.29
2019-03-28T19:17:26.559Z,57.99
2019-03-28T19:19:55.157Z,58.56
2019-03-28T19:22:23.892Z,58.48
2019-03-28T19:24:52.423Z,58.35
2019-03-28T19:27:21.177Z,58.17
2019-03-28T19:29:49.705Z,57.64
2019-03-28T19:32:18.291Z,57.58
2019-03-28T19:34:46.914Z,63.26
2019-03-28T19:37:15.931Z,60.07
2019-03-28T19:39:44.505Z,58.97
2019-03-28T19:42:13.149Z,58.67
2019-03-28T19:44:42.721Z,58.65
2019-03-28T19:47:11.355Z,59.34
2019-03-28T19:49:39.973Z,59.52
2019-03-28T19:52:08.631Z,60.48
2019-03-28T19:54:37.257Z,60.96
2019-03-28T19:57:05.775Z,60.89
2019-03-28T19:59:34.464Z,61.08
2019-03-28T20:02:03.059Z,60.44
2019-03-28T20:04:31.960Z,60.54
2019-03-28T20:07:00.558Z,60.81
2019-03-28T20:09:29.120Z,65.26
2019-03-28T20:12:01.639Z,62.93
2019-03-28T20:14:28.098Z,61.65
2019-03-28T20:16:56.625Z,61.12
2019-03-28T20:19:25.885Z,61.90
2019-03-28T20:21:54.417Z,61.08
2019-03-28T20:24:23.064Z,60.97
2019-03-28T20:26:54.112Z,62.49
2019-03-28T20:29:22.099Z,62.97
2019-03-28T20:31:50.728Z,62.69
2019-03-28T20:34:19.319Z,62.16
2019-03-28T20:36:48.217Z,61.99
2019-03-28T20:39:16.884Z,63.09
2019-03-28T20:41:45.411Z,63.85
2019-03-28T20:44:13.994Z,67.29
2019-03-28T20:46:42.644Z,67.73
2019-03-28T20:49:11.255Z,64.04
2019-03-28T20:51:40.029Z,63.32
2019-03-28T20:54:08.609Z,63.80
2019-03-28T20:56:37.210Z,63.19
2019-03-28T20:59:05.904Z,62.89
2019-03-28T21:01:34.489Z,64.08
2019-03-28T21:04:03.309Z,64.13
2019-03-28T21:06:31.875Z,63.56
2019-03-28T21:09:00.456Z,62.93
2019-03-28T21:11:29.629Z,63.06
2019-03-28T21:13:58.399Z,62.88
2019-03-28T21:16:27.015Z,63.13
2019-03-28T21:18:55.677Z,64.00
2019-03-28T21:21:24.207Z,68.95
2019-03-28T21:23:52.847Z,64.32
2019-03-28T21:26:21.428Z,63.22
2019-03-28T21:28:50.727Z,64.47
2019-03-28T21:31:19.579Z,63.47
2019-03-28T21:33:48.249Z,64.42
2019-03-28T21:36:29.026Z,65.40
2019-03-28T21:38:47.039Z,66.02
2019-03-28T21:41:15.752Z,65.40
2019-03-28T21:43:44.383Z,64.36
2019-03-28T21:46:13.032Z,63.86
2019-03-28T21:48:42.918Z,64.13
2019-03-28T21:51:11.870Z,64.50
2019-03-28T21:53:40.366Z,66.26
2019-03-28T21:56:08.913Z,68.95
2019-03-28T21:58:38.007Z,65.66
2019-03-28T22:01:07.137Z,64.45
2019-03-28T22:03:36.074Z,64.50
2019-03-28T22:06:04.678Z,65.05
2019-03-28T22:08:33.376Z,64.95
2019-03-28T22:11:01.890Z,66.32
2019-03-28T22:13:30.565Z,66.72
2019-03-28T22:16:01.102Z,66.30
2019-03-28T22:18:29.722Z,65.98
2019-03-28T22:20:58.339Z,65.87
2019-03-28T22:23:26.738Z,65.56
2019-03-28T22:25:55.377Z,65.40
2019-03-28T22:28:23.986Z,66.61
2019-03-28T22:30:52.569Z,69.89
2019-03-28T22:33:21.152Z,71.27
2019-03-28T22:35:49.986Z,66.95
2019-03-28T22:38:18.609Z,65.80
2019-03-28T22:40:47.175Z,65.60
2019-03-28T22:43:15.705Z,67.13
2019-03-28T22:45:44.253Z,69.85
2019-03-28T22:48:13.100Z,68.83
2019-03-28T22:50:41.999Z,68.01
2019-03-28T22:53:10.554Z,67.05
2019-03-28T22:55:39.137Z,66.20
2019-03-28T22:58:08.207Z,65.68
2019-03-28T23:00:47.374Z,65.79
2019-03-28T23:03:17.517Z,65.25
2019-03-28T23:05:46.220Z,65.16
2019-03-28T23:08:14.804Z,73.22
2019-03-28T23:10:43.422Z,67.05
2019-03-28T23:13:12.112Z,65.36
2019-03-28T23:15:40.753Z,64.94
2019-03-28T23:18:09.248Z,65.70
2019-03-28T23:20:37.961Z,67.55
2019-03-28T23:23:06.601Z,68.82
2019-03-28T23:25:36.938Z,68.80
2019-03-28T23:28:06.093Z,68.30
2019-03-28T23:30:34.716Z,68.14
2019-03-28T23:33:03.293Z,68.14
2019-03-28T23:35:31.851Z,67.24
2019-03-28T23:38:00.501Z,67.05
2019-03-28T23:40:29.942Z,68.66
2019-03-28T23:42:58.874Z,71.25
2019-03-28T23:45:27.463Z,71.30
2019-03-28T23:47:56.912Z,68.67
2019-03-28T23:50:25.508Z,68.67
2019-03-28T23:52:54.015Z,67.06
2019-03-28T23:55:22.732Z,68.62
2019-03-28T23:57:51.333Z,69.84
